Time;durP1;ratioP1;P1;durP2;ratioP2;P2;SDS_P1;SDS_P2;PMS_P1;PMS_P2;Temp;Humidity;BMP_temperature;BMP_pressure;BME280_temperature;BME280_humidity;BME280_pressure;Samples;Min_cycle;Max_cycle;Signal;HPM_P1;HPM_P2
2021/05/31 00:01:55;;;;;;;5.32;4.00;;;;;;;16.26;85.04;100340.56;5043288;28;20033;-91
2021/05/31 00:04:21;;;;;;;5.72;4.55;;;;;;;15.84;85.26;100277.59;5049600;28;20044;-80
2021/05/31 00:06:53;;;;;;;5.85;4.55;;;;;;;16.02;85.62;100305.56;5033616;28;20092;-81
2021/05/31 00:09:19;;;;;;;6.60;4.40;;;;;;;16.18;85.96;100335.28;5029529;28;20041;-92
2021/05/31 00:11:44;;;;;;;5.07;4.00;;;;;;;15.97;85.88;100297.69;5030036;28;20041;-84
2021/05/31 00:14:10;;;;;;;5.63;4.00;;;;;;;16.16;85.67;100339.59;5028386;28;20041;-83
2021/05/31 00:16:36;;;;;;;6.50;4.28;;;;;;;16.13;85.89;100331.75;5028148;28;20043;-82
2021/05/31 00:19:03;;;;;;;5.50;4.78;;;;;;;15.97;86.13;100312.47;5028512;28;20021;-80
2021/05/31 00:21:29;;;;;;;5.70;4.78;;;;;;;15.45;86.54;100234.56;5039627;28;20041;-82
2021/05/31 00:23:55;;;;;;;5.32;4.13;;;;;;;15.62;86.47;100256.47;5048190;28;20403;-83
2021/05/31 00:26:20;;;;;;;5.40;4.57;;;;;;;15.98;86.87;100309.00;5048011;28;20057;-87
2021/05/31 00:28:46;;;;;;;5.07;4.38;;;;;;;15.84;86.35;100286.28;5031653;28;20025;-81
2021/05/31 00:31:13;;;;;;;5.63;4.30;;;;;;;15.96;86.31;100319.41;5031329;28;20384;-86
2021/05/31 00:33:40;;;;;;;5.43;4.32;;;;;;;15.92;86.05;100327.16;5031077;28;20041;-84
2021/05/31 00:36:07;;;;;;;5.55;4.80;;;;;;;15.82;86.30;100311.41;5001041;28;20042;-82
2021/05/31 00:38:33;;;;;;;5.50;4.43;;;;;;;15.55;86.83;100278.03;4990668;28;20070;-81
2021/05/31 00:41:01;;;;;;;7.43;4.55;;;;;;;15.76;87.04;100307.81;4995598;28;20167;-83
2021/05/31 00:43:33;;;;;;;6.60;4.90;;;;;;;15.60;87.64;100289.41;4995564;28;20476;-82
2021/05/31 00:46:06;;;;;;;6.47;4.40;;;;;;;15.74;87.34;100313.00;4995701;28;20045;-81
2021/05/31 00:48:33;;;;;;;6.10;4.40;;;;;;;15.42;87.36;100244.94;5011461;28;20173;-80
2021/05/31 00:51:02;;;;;;;5.57;4.55;;;;;;;15.88;87.40;100313.22;5010258;28;20053;-80
2021/05/31 00:53:29;;;;;;;6.63;4.38;;;;;;;15.67;87.37;100285.16;4995354;28;20100;-81
2021/05/31 00:55:55;;;;;;;5.13;4.45;;;;;;;15.92;87.54;100312.41;5011633;28;20038;-79
2021/05/31 00:58:21;;;;;;;5.75;4.35;;;;;;;15.73;87.26;100269.63;5011290;28;20178;-79
2021/05/31 01:00:47;;;;;;;7.68;4.20;;;;;;;15.91;86.51;100294.16;4994952;28;20038;-80
2021/05/31 01:03:13;;;;;;;4.85;4.03;;;;;;;15.84;86.86;100282.81;5011632;28;20040;-80
2021/05/31 01:05:40;;;;;;;5.65;4.15;;;;;;;16.06;86.61;100307.34;4992876;28;20531;-80
2021/05/31 01:08:11;;;;;;;5.65;3.95;;;;;;;15.89;86.32;100286.34;5008048;28;20029;-80
2021/05/31 01:11:01;;;;;;;8.30;4.85;;;;;;;15.96;85.30;100301.19;5011130;28;20069;-80
2021/05/31 01:13:48;;;;;;;8.80;4.53;;;;;;;15.88;85.99;100299.34;5011314;28;20132;-81
2021/05/31 01:19:53;;;;;;;6.82;4.75;;;;;;;15.97;86.87;100304.66;5339280;22;20111;-80
2021/05/31 01:22:27;;;;;;;7.68;4.45;;;;;;;15.99;87.47;100303.81;5002792;28;20037;-78
2021/05/31 01:25:15;;;;;;;6.47;4.43;;;;;;;16.01;86.77;100304.72;5033870;28;20040;-80
2021/05/31 01:27:58;;;;;;;4.90;4.13;;;;;;;15.70;85.91;100251.34;5033981;28;20025;-80
2021/05/31 01:30:24;;;;;;;6.45;4.40;;;;;;;15.88;86.50;100284.59;4991736;28;20133;-80
2021/05/31 01:32:54;;;;;;;5.53;4.55;;;;;;;15.89;86.83;100293.25;4975753;28;20177;-81
2021/05/31 01:35:25;;;;;;;5.60;4.40;;;;;;;15.55;87.06;100246.81;4990641;28;20125;-81
2021/05/31 01:37:54;;;;;;;6.65;4.45;;;;;;;15.85;87.26;100297.59;4992107;28;20516;-84
2021/05/31 01:40:22;;;;;;;5.78;4.70;;;;;;;15.24;87.17;100201.31;4992290;28;20120;-88
2021/05/31 01:42:49;;;;;;;5.65;4.82;;;;;;;15.45;87.05;100234.56;4992181;28;20101;-84
2021/05/31 01:45:15;;;;;;;5.28;4.78;;;;;;;15.86;87.66;100294.09;4990275;28;20054;-78
2021/05/31 01:47:42;;;;;;;6.32;4.30;;;;;;;15.54;87.70;100247.69;4973572;28;20568;-83
2021/05/31 01:50:09;;;;;;;7.82;4.82;;;;;;;15.78;87.67;100293.97;4975341;28;20548;-89
2021/05/31 01:52:37;;;;;;;6.68;4.43;;;;;;;15.79;86.92;100281.84;4974912;28;20041;-76
2021/05/31 01:55:04;;;;;;;6.65;4.47;;;;;;;15.89;86.89;100295.84;4991391;28;20049;-82
2021/05/31 01:57:29;;;;;;;7.22;4.65;;;;;;;15.95;86.80;100291.63;4991146;28;20026;-88
2021/05/31 01:59:57;;;;;;;6.63;4.50;;;;;;;15.55;86.54;100223.41;4991305;28;20512;-85
2021/05/31 02:02:23;;;;;;;8.05;5.30;;;;;;;15.57;87.07;100239.91;5008930;28;20052;-80
2021/05/31 02:04:50;;;;;;;6.60;4.78;;;;;;;15.74;87.14;100283.50;5015373;28;20026;-81
2021/05/31 02:07:15;;;;;;;6.05;5.13;;;;;;;15.48;87.42;100263.22;5033126;28;20021;-88
2021/05/31 02:09:41;;;;;;;8.77;5.18;;;;;;;15.54;87.97;100299.75;5015332;28;20032;-85
2021/05/31 02:12:09;;;;;;;12.98;5.60;;;;;;;15.50;88.06;100301.41;5015170;28;20033;-83
2021/05/31 02:15:02;;;;;;;7.47;5.20;;;;;;;15.41;88.52;100297.81;5014588;28;20033;-81
2021/05/31 02:17:41;;;;;;;7.28;5.60;;;;;;;15.24;89.09;100294.94;5013089;28;20053;-81
2021/05/31 02:20:09;;;;;;;6.75;5.40;;;;;;;15.21;88.84;100287.97;5027612;28;20045;-82
2021/05/31 02:22:40;;;;;;;7.95;5.90;;;;;;;14.84;89.37;100253.59;5032565;28;20052;-82
2021/05/31 02:25:06;;;;;;;7.15;5.57;;;;;;;14.95;89.37;100262.44;5032133;28;20033;-81
2021/05/31 02:27:32;;;;;;;11.25;6.63;;;;;;;15.12;89.73;100293.06;5014556;28;20041;-86
2021/05/31 02:30:00;;;;;;;8.05;6.57;;;;;;;15.14;89.86;100304.34;5014276;28;20025;-85
2021/05/31 02:32:28;;;;;;;9.80;6.35;;;;;;;15.13;89.47;100287.88;4990233;28;20100;-84
2021/05/31 02:34:55;;;;;;;8.05;6.57;;;;;;;15.08;89.07;100299.03;4974325;28;20038;-85
2021/05/31 02:37:32;;;;;;;7.97;6.65;;;;;;;14.87;90.08;100270.13;4989973;28;20120;-82
2021/05/31 02:39:58;;;;;;;8.00;6.82;;;;;;;14.79;89.70;100258.75;4990307;28;20103;-82
2021/05/31 02:42:23;;;;;;;9.98;7.53;;;;;;;14.64;90.08;100225.56;4990028;28;20502;-80
2021/05/31 02:44:49;;;;;;;8.75;7.05;;;;;;;15.08;89.58;100296.44;4990180;28;20037;-84
2021/05/31 02:47:14;;;;;;;9.13;6.65;;;;;;;15.08;89.25;100289.53;4990055;28;20093;-81
2021/05/31 02:49:40;;;;;;;11.05;7.25;;;;;;;14.96;89.23;100271.13;4990442;28;20038;-81
2021/05/31 02:52:05;;;;;;;9.05;7.05;;;;;;;14.91;89.41;100259.78;4990308;28;20117;-87
2021/05/31 02:54:31;;;;;;;8.30;6.40;;;;;;;14.94;89.83;100288.41;4990068;28;20038;-84
2021/05/31 02:56:56;;;;;;;10.10;6.40;;;;;;;14.61;90.66;100266.19;4989717;28;20038;-85
2021/05/31 02:59:22;;;;;;;9.18;6.97;;;;;;;14.74;91.16;100290.69;4989632;28;20041;-82
2021/05/31 03:01:47;;;;;;;8.32;6.60;;;;;;;14.80;91.13;100298.59;4985014;28;20034;-82
2021/05/31 03:04:13;;;;;;;9.65;6.68;;;;;;;14.56;89.51;100268.72;5006955;28;20041;-89
2021/05/31 03:06:38;;;;;;;8.48;6.47;;;;;;;14.43;90.29;100275.44;4994084;28;20492;-84
2021/05/31 03:09:04;;;;;;;8.23;6.70;;;;;;;14.36;91.15;100286.53;5010557;28;20036;-85
2021/05/31 03:11:29;;;;;;;7.68;6.82;;;;;;;14.16;91.16;100226.47;4994415;28;20088;-84
2021/05/31 03:13:55;;;;;;;8.25;6.07;;;;;;;14.35;91.20;100261.41;5011633;28;20037;-84
2021/05/31 03:16:20;;;;;;;9.10;6.45;;;;;;;14.55;91.20;100301.63;4994079;28;20033;-81
2021/05/31 03:18:46;;;;;;;8.15;6.75;;;;;;;14.33;92.24;100289.06;5014757;28;20474;-86
2021/05/31 03:21:11;;;;;;;8.90;6.55;;;;;;;14.28;92.10;100263.03;5012979;28;20028;-88
2021/05/31 03:23:37;;;;;;;9.63;6.15;;;;;;;14.27;92.62;100289.84;5013623;28;20029;-82
2021/05/31 03:26:02;;;;;;;8.63;6.40;;;;;;;14.25;92.26;100286.34;5014114;28;20037;-91
2021/05/31 03:28:28;;;;;;;9.73;6.55;;;;;;;14.19;92.17;100287.09;5014595;28;20033;-88
2021/05/31 03:30:53;;;;;;;9.65;6.45;;;;;;;14.21;92.22;100271.56;5013867;28;20025;-89
2021/05/31 03:33:19;;;;;;;8.35;6.45;;;;;;;14.48;91.84;100299.75;5011951;28;20473;-88
2021/05/31 03:35:44;;;;;;;7.60;6.03;;;;;;;14.23;91.40;100252.56;5011960;28;20041;-85
2021/05/31 03:38:09;;;;;;;7.88;5.93;;;;;;;14.43;90.90;100291.00;5011631;28;20091;-80
2021/05/31 03:40:35;;;;;;;9.10;6.35;;;;;;;14.01;90.99;100237.44;5030532;28;20518;-82
2021/05/31 03:43:00;;;;;;;8.25;6.00;;;;;;;14.26;91.06;100274.25;5030643;28;20120;-80
2021/05/31 03:45:26;;;;;;;7.90;6.10;;;;;;;14.13;91.50;100262.72;5013232;28;20033;-79
2021/05/31 03:47:51;;;;;;;10.30;6.28;;;;;;;14.42;91.21;100299.63;5013348;28;20129;-83
2021/05/31 03:50:17;;;;;;;8.73;5.65;;;;;;;14.36;91.01;100276.16;5009715;28;20454;-88
2021/05/31 03:52:44;;;;;;;6.70;5.32;;;;;;;14.29;90.62;100287.25;5013755;28;20033;-82
2021/05/31 03:55:10;;;;;;;7.57;5.82;;;;;;;14.44;91.03;100304.84;5012842;28;20124;-80
2021/05/31 03:57:36;;;;;;;6.88;5.18;;;;;;;14.47;90.63;100294.53;5013247;28;20499;-80
2021/05/31 04:00:09;;;;;;;7.13;5.15;;;;;;;14.29;91.19;100295.91;5013316;28;20484;-80
2021/05/31 04:02:39;;;;;;;6.38;4.32;;;;;;;13.61;91.53;100229.72;5009646;28;20088;-85
2021/05/31 04:05:04;;;;;;;;;;;;;;;14.10;92.71;100314.59;5013612;28;20037;-84
2021/05/31 04:12:58;;;;;;;8.23;5.40;;;;;;;13.40;93.73;100277.69;5014761;28;20093;-80
2021/05/31 04:15:23;;;;;;;6.65;5.22;;;;;;;13.57;94.05;100300.50;5014915;28;20528;-80
2021/05/31 04:17:49;;;;;;;10.82;5.03;;;;;;;13.56;94.06;100278.91;5013858;28;20072;-81
2021/05/31 04:20:15;;;;;;;5.90;4.70;;;;;;;13.69;93.59;100302.50;5015831;28;20057;-83
2021/05/31 04:22:40;;;;;;;6.85;4.60;;;;;;;13.75;93.59;100298.31;5016310;28;20171;-85
2021/05/31 04:25:06;;;;;;;6.40;4.57;;;;;;;13.49;93.76;100261.44;5034447;28;20048;-81
2021/05/31 04:27:32;;;;;;;7.07;5.15;;;;;;;13.79;93.05;100306.19;5016798;28;20065;-80
2021/05/31 04:29:58;;;;;;;7.63;5.40;;;;;;;13.69;93.17;100287.81;5016733;28;20087;-81
2021/05/31 04:32:24;;;;;;;8.90;5.50;;;;;;;13.48;93.37;100236.34;5016783;28;20034;-81
2021/05/31 04:34:49;;;;;;;7.35;5.30;;;;;;;13.85;92.67;100290.75;5034860;28;20232;-86
2021/05/31 04:37:15;;;;;;;7.03;5.28;;;;;;;13.93;92.60;100301.28;5016321;28;20082;-81
2021/05/31 04:39:40;;;;;;;8.73;4.80;;;;;;;13.96;92.89;100306.53;5016033;28;20467;-84
2021/05/31 04:42:06;;;;;;;6.18;4.80;;;;;;;13.91;92.79;100301.25;5015988;28;20033;-81
2021/05/31 04:44:36;;;;;;;6.30;4.75;;;;;;;13.94;92.68;100303.91;5016618;28;20558;-81
2021/05/31 04:47:04;;;;;;;6.38;5.00;;;;;;;13.95;93.02;100297.00;5016190;28;20087;-81
2021/05/31 04:49:29;;;;;;;6.28;4.60;;;;;;;13.95;92.96;100302.19;5016338;28;20039;-82
2021/05/31 04:51:55;;;;;;;7.10;4.95;;;;;;;13.88;92.79;100278.72;5016297;28;20026;-81
2021/05/31 04:54:20;;;;;;;5.80;4.72;;;;;;;13.89;92.92;100284.75;5031855;28;20037;-81
2021/05/31 04:56:46;;;;;;;6.45;4.97;;;;;;;13.89;93.21;100296.03;5016272;28;20507;-82
2021/05/31 04:59:13;;;;;;;9.38;5.10;;;;;;;13.89;93.72;100302.94;5016127;28;20029;-79
2021/05/31 05:01:39;;;;;;;7.13;4.57;;;;;;;13.93;93.75;100309.06;5033591;28;20495;-81
2021/05/31 05:04:06;;;;;;;5.55;4.85;;;;;;;13.87;94.09;100283.88;5033968;28;20025;-85
2021/05/31 05:06:31;;;;;;;8.93;5.53;;;;;;;13.82;94.42;100267.31;5030137;28;20083;-84
2021/05/31 05:08:57;;;;;;;6.53;4.93;;;;;;;14.21;94.08;100315.69;5015664;28;20034;-84
2021/05/31 05:11:23;;;;;;;7.40;5.20;;;;;;;14.21;93.87;100306.16;5033222;28;20101;-87
2021/05/31 05:13:51;;;;;;;7.55;4.90;;;;;;;14.17;93.56;100306.09;5032295;28;20553;-85
2021/05/31 05:16:17;;;;;;;6.45;4.97;;;;;;;14.21;93.28;100294.91;5015020;28;20049;-83
2021/05/31 05:18:49;;;;;;;9.30;5.55;;;;;;;14.23;93.55;100312.28;5015046;28;20045;-87
2021/05/31 05:21:18;;;;;;;6.68;5.40;;;;;;;14.28;93.78;100316.66;5031702;28;20091;-84
2021/05/31 05:23:48;;;;;;;9.13;5.50;;;;;;;14.04;93.78;100285.09;5039658;28;20029;-87
2021/05/31 05:26:18;;;;;;;7.28;5.53;;;;;;;14.11;94.02;100293.00;5037970;28;20574;-86
2021/05/31 05:28:44;;;;;;;8.20;5.10;;;;;;;14.11;94.09;100304.25;5024667;28;20471;-82
2021/05/31 05:31:11;;;;;;;5.78;4.05;;;;;;;14.05;93.12;100309.31;5025734;28;20024;-86
2021/05/31 05:33:39;;;;;;;8.60;4.93;;;;;;;14.12;94.56;100326.78;5042473;28;20029;-85
2021/05/31 05:39:10;;;;;;;5.82;4.93;;;;;;;14.01;94.99;100326.53;5042872;28;20041;-81
2021/05/31 05:49:41;;;;;;;5.60;4.57;;;;;;;13.80;96.10;100336.47;4969664;28;20043;-85
2021/05/31 05:52:08;;;;;;;5.57;4.57;;;;;;;13.80;96.12;100331.28;4971243;28;20027;-85
2021/05/31 05:54:34;;;;;;;7.43;4.45;;;;;;;13.75;95.28;100331.19;4971388;28;20054;-83
2021/05/31 05:56:59;;;;;;;4.93;4.03;;;;;;;13.74;96.00;100329.44;4971476;28;20058;-84
2021/05/31 05:59:25;;;;;;;6.13;4.30;;;;;;;13.64;95.99;100312.78;4971298;28;20414;-84
2021/05/31 06:01:50;;;;;;;6.63;4.20;;;;;;;13.14;96.55;100214.00;4971302;28;20117;-81
2021/05/31 06:04:17;;;;;;;8.20;4.60;;;;;;;13.82;96.11;100337.38;4952815;28;20027;-82
2021/05/31 06:06:44;;;;;;;5.90;4.10;;;;;;;13.46;96.64;100289.03;4955094;28;20030;-84
2021/05/31 06:09:12;;;;;;;6.22;4.32;;;;;;;13.66;95.58;100315.44;4970410;28;20074;-80
2021/05/31 06:11:38;;;;;;;4.75;3.78;;;;;;;13.61;96.06;100314.44;4949158;28;20592;-82
2021/05/31 06:14:04;;;;;;;5.95;4.20;;;;;;;13.52;96.50;100325.47;4951971;29;20050;-84
2021/05/31 06:16:30;;;;;;;5.88;4.00;;;;;;;13.66;97.10;100338.78;4935602;29;20031;-83
2021/05/31 06:18:56;;;;;;;5.53;4.28;;;;;;;13.84;97.20;100335.69;4913013;29;20036;-81
2021/05/31 06:21:21;;;;;;;4.20;3.78;;;;;;;13.88;96.80;100319.34;4914021;28;20586;-81
2021/05/31 06:23:47;;;;;;;7.65;4.03;;;;;;;13.77;96.19;100276.72;4971069;28;20035;-80
2021/05/31 06:26:13;;;;;;;6.28;3.45;;;;;;;14.05;94.87;100323.16;4969460;28;20047;-83
2021/05/31 06:28:38;;;;;;;5.63;3.50;;;;;;;13.76;95.23;100299.22;4954556;28;20125;-82
2021/05/31 06:31:04;;;;;;;5.78;3.67;;;;;;;13.82;95.14;100311.41;4954940;28;20505;-83
2021/05/31 06:33:30;;;;;;;9.48;3.83;;;;;;;13.71;95.87;100312.06;4969942;28;20480;-81
2021/05/31 06:35:57;;;;;;;6.00;3.40;;;;;;;13.78;97.06;100317.41;4970638;28;20061;-87
2021/05/31 06:38:22;;;;;;;5.70;3.60;;;;;;;13.72;97.14;100323.31;4954500;28;20035;-80
2021/05/31 06:40:48;;;;;;;4.45;3.47;;;;;;;13.65;96.83;100321.47;4970743;28;20027;-82
2021/05/31 06:43:13;;;;;;;4.95;3.80;;;;;;;13.75;97.16;100336.38;4969026;28;20039;-81
2021/05/31 06:45:40;;;;;;;5.43;3.70;;;;;;;13.72;97.78;100315.53;4990181;28;20046;-81
2021/05/31 06:48:06;;;;;;;5.80;3.45;;;;;;;13.40;96.81;100267.31;4989541;28;20050;-82
2021/05/31 06:50:34;;;;;;;4.78;3.13;;;;;;;13.63;97.09;100307.56;5009060;28;20500;-81
2021/05/31 06:53:00;;;;;;;5.65;3.10;;;;;;;13.89;96.75;100332.38;5031938;28;20042;-81
2021/05/31 06:55:27;;;;;;;6.10;3.20;;;;;;;13.95;96.13;100341.13;5014186;28;20037;-80
2021/05/31 06:57:54;;;;;;;3.92;3.17;;;;;;;14.04;96.38;100325.72;5031469;28;20037;-80
2021/05/31 07:00:25;;;;;;;3.75;3.00;;;;;;;14.03;95.13;100330.06;5014248;28;20021;-81
2021/05/31 07:02:51;;;;;;;3.25;2.45;;;;;;;14.01;94.66;100329.13;5031644;28;20037;-77
2021/05/31 07:05:17;;;;;;;3.90;2.60;;;;;;;13.91;94.15;100332.38;4990181;28;20137;-80
2021/05/31 07:07:43;;;;;;;3.05;2.58;;;;;;;13.82;94.99;100327.00;4973810;28;20653;-80
2021/05/31 07:10:11;;;;;;;3.35;2.58;;;;;;;13.90;95.54;100341.00;4973739;28;20596;-80
2021/05/31 07:12:36;;;;;;;5.43;3.03;;;;;;;13.93;95.11;100335.00;4990086;28;20030;-81
2021/05/31 07:15:04;;;;;;;3.78;2.58;;;;;;;13.61;94.59;100283.31;4987937;28;20440;-80
2021/05/31 07:17:32;;;;;;;3.25;2.13;;;;;;;13.93;94.74;100338.47;4973090;28;20026;-78
2021/05/31 07:19:59;;;;;;;4.78;2.72;;;;;;;13.75;94.81;100315.63;4989477;28;20054;-79
2021/05/31 07:22:27;;;;;;;2.60;2.25;;;;;;;13.75;95.08;100321.66;4974014;28;20103;-80
2021/05/31 07:24:53;;;;;;;3.22;2.38;;;;;;;13.98;95.32;100336.88;4989732;28;20078;-80
2021/05/31 07:27:19;;;;;;;4.75;2.50;;;;;;;13.91;94.98;100329.78;4989991;28;20038;-78
2021/05/31 07:29:45;;;;;;;3.35;2.38;;;;;;;13.95;95.17;100339.38;4989459;28;20576;-79
2021/05/31 07:32:12;;;;;;;7.07;4.43;;;;;;;14.00;94.86;100339.50;4989716;28;20109;-80
2021/05/31 07:34:37;;;;;;;3.15;2.35;;;;;;;14.12;94.09;100339.75;4989735;28;20030;-80
2021/05/31 07:37:04;;;;;;;6.68;3.92;;;;;;;13.95;93.39;100328.16;5009997;28;20469;-81
2021/05/31 07:39:30;;;;;;;11.18;4.10;;;;;;;14.05;93.56;100320.56;5031495;28;20029;-81
2021/05/31 07:41:55;;;;;;;4.97;2.70;;;;;;;14.07;92.97;100331.84;5031520;28;20037;-80
2021/05/31 07:44:21;;;;;;;4.43;2.63;;;;;;;13.71;93.07;100262.78;5013443;28;20483;-79
2021/05/31 07:46:46;;;;;;;3.90;2.83;;;;;;;13.95;93.62;100290.06;5015762;28;20061;-80
2021/05/31 07:49:12;;;;;;;3.25;2.45;;;;;;;14.09;93.35;100305.91;5017806;28;20456;-79
2021/05/31 07:51:43;;;;;;;3.42;2.50;;;;;;;13.96;92.70;100265.88;5035549;28;20035;-81
2021/05/31 07:54:08;;;;;;;2.33;1.98;;;;;;;13.81;92.56;100266.44;5017519;28;20120;-80
2021/05/31 07:56:35;;;;;;;2.55;2.10;;;;;;;13.98;92.07;100317.81;5017492;28;20120;-80
2021/05/31 07:59:01;;;;;;;3.35;2.22;;;;;;;13.95;92.44;100325.56;5017631;28;20091;-80
2021/05/31 08:01:27;;;;;;;3.03;2.00;;;;;;;13.98;92.25;100333.38;5035264;28;20033;-80
2021/05/31 08:03:52;;;;;;;2.17;1.77;;;;;;;13.91;92.68;100322.00;5035411;28;20056;-80
2021/05/31 08:06:18;;;;;;;2.33;2.00;;;;;;;13.93;91.92;100324.63;5035070;28;20091;-80
2021/05/31 08:08:44;;;;;;;2.13;1.88;;;;;;;14.02;93.15;100330.03;5033790;28;20037;-80
2021/05/31 08:11:10;;;;;;;3.25;2.00;;;;;;;14.03;93.58;100317.06;5035165;28;20475;-80
2021/05/31 08:13:36;;;;;;;2.58;2.00;;;;;;;14.15;93.63;100319.03;5016864;28;20025;-79
2021/05/31 08:16:03;;;;;;;3.42;2.50;;;;;;;14.23;93.56;100329.56;5017355;28;20033;-80
2021/05/31 08:18:29;;;;;;;7.95;3.42;;;;;;;13.96;92.95;100284.03;5034859;28;20488;-80
2021/05/31 08:20:54;;;;;;;3.08;2.35;;;;;;;14.29;93.39;100316.69;5014949;28;20060;-81
2021/05/31 08:23:20;;;;;;;3.47;2.47;;;;;;;14.16;93.32;100292.22;5011778;28;20436;-78
2021/05/31 08:25:46;;;;;;;3.13;2.10;;;;;;;14.45;91.38;100332.59;5012584;28;20061;-80
2021/05/31 08:28:12;;;;;;;2.00;1.80;;;;;;;14.35;91.31;100324.59;5011805;28;20037;-79
2021/05/31 08:30:39;;;;;;;2.80;2.13;;;;;;;14.43;91.88;100329.97;5012399;28;20033;-80
2021/05/31 08:33:05;;;;;;;3.60;2.63;;;;;;;14.29;92.46;100300.25;5012327;28;20436;-82
2021/05/31 08:35:32;;;;;;;2.80;2.20;;;;;;;14.60;92.06;100345.00;5012343;28;20033;-82
2021/05/31 08:37:58;;;;;;;2.97;2.13;;;;;;;14.63;91.38;100340.72;5012449;28;20130;-81
2021/05/31 08:40:25;;;;;;;2.92;2.00;;;;;;;14.53;90.31;100320.63;5012519;28;20467;-81
2021/05/31 08:42:51;;;;;;;3.70;2.03;;;;;;;14.59;90.97;100314.66;5011886;28;20185;-80
2021/05/31 08:45:21;;;;;;;4.63;2.38;;;;;;;14.61;90.16;100325.97;5012206;28;20030;-80
2021/05/31 08:47:49;;;;;;;2.38;2.00;;;;;;;14.61;90.87;100329.41;5012214;28;20033;-81
2021/05/31 08:50:28;;;;;;;3.10;2.40;;;;;;;14.71;91.59;100335.69;5012165;28;20032;-81
2021/05/31 08:52:54;;;;;;;3.53;2.50;;;;;;;14.62;90.94;100319.91;5012087;28;20080;-79
2021/05/31 08:55:23;;;;;;;3.63;2.00;;;;;;;14.82;91.48;100346.28;5032001;28;20034;-80
2021/05/31 08:57:50;;;;;;;6.63;2.40;;;;;;;14.85;91.17;100346.31;5032700;28;20061;-80
2021/05/31 09:00:19;;;;;;;4.05;2.08;;;;;;;14.82;91.67;100338.50;5034718;28;20057;-80
2021/05/31 09:02:45;;;;;;;2.80;2.30;;;;;;;14.84;90.81;100318.59;5034105;28;20055;-81
2021/05/31 09:05:11;;;;;;;4.15;2.65;;;;;;;14.98;90.27;100340.50;5034320;28;20117;-81
2021/05/31 09:07:37;;;;;;;3.80;2.88;;;;;;;14.71;90.10;100294.13;5032798;28;20120;-79
2021/05/31 09:10:06;;;;;;;3.95;2.60;;;;;;;14.71;91.65;100274.19;5015960;28;20040;-78
2021/05/31 09:12:36;;;;;;;4.85;2.92;;;;;;;15.11;91.29;100333.75;5032879;28;20099;-80
2021/05/31 09:15:04;;;;;;;3.17;2.22;;;;;;;15.09;91.20;100317.28;5034057;28;20029;-79
2021/05/31 09:17:33;;;;;;;4.15;2.65;;;;;;;15.06;90.26;100313.75;5033847;28;20040;-80
2021/05/31 09:20:00;;;;;;;3.03;2.00;;;;;;;15.16;90.71;100320.84;5033869;28;20111;-80
2021/05/31 09:22:29;;;;;;;3.60;2.17;;;;;;;15.15;90.32;100306.97;5015769;28;20154;-78
2021/05/31 09:24:56;;;;;;;4.68;3.15;;;;;;;15.26;90.26;100330.53;5015987;28;20036;-80
2021/05/31 09:27:22;;;;;;;4.72;3.00;;;;;;;14.90;89.22;100269.31;5033926;28;20040;-79
2021/05/31 09:29:59;;;;;;;11.90;8.10;;;;;;;14.92;89.55;100277.16;5032536;28;20033;-80
2021/05/31 09:32:25;;;;;;;4.53;2.90;;;;;;;15.06;90.66;100321.56;5033708;28;20033;-80
2021/05/31 09:34:58;;;;;;;5.97;2.78;;;;;;;14.88;90.64;100307.41;5015606;28;20090;-80
2021/05/31 09:37:24;;;;;;;3.47;2.60;;;;;;;14.88;90.38;100303.06;5033779;28;20025;-79
2021/05/31 09:40:02;;;;;;;3.35;2.22;;;;;;;14.96;90.13;100311.00;5033927;28;20098;-78
2021/05/31 09:42:29;;;;;;;2.80;2.10;;;;;;;14.73;90.46;100302.81;5033286;28;20025;-80
2021/05/31 09:45:14;;;;;;;3.55;2.30;;;;;;;14.82;91.90;100317.69;5015491;28;20426;-80
2021/05/31 09:47:41;;;;;;;2.38;2.00;;;;;;;14.71;91.56;100294.97;5015261;28;20033;-80
2021/05/31 09:50:09;;;;;;;3.35;2.42;;;;;;;14.87;92.00;100297.84;5032206;28;20404;-83
2021/05/31 09:52:35;;;;;;;3.15;2.00;;;;;;;14.74;91.50;100257.78;5031913;28;20041;-78
2021/05/31 09:55:07;;;;;;;3.13;1.80;;;;;;;15.01;90.68;100298.06;5015254;28;20040;-79
2021/05/31 09:57:37;;;;;;;2.63;1.75;;;;;;;14.98;90.33;100298.91;5032682;28;20030;-80
2021/05/31 10:00:09;;;;;;;2.78;1.70;;;;;;;14.90;89.80;100310.03;5014956;28;20029;-80
2021/05/31 10:02:50;;;;;;;2.63;1.90;;;;;;;14.88;90.09;100299.63;5031815;28;20035;-79
2021/05/31 10:10:33;;;;;;;3.15;1.70;;;;;;;14.62;90.14;100257.56;5030234;28;20028;-82
2021/05/31 10:13:00;;;;;;;2.67;1.95;;;;;;;14.34;90.57;100234.59;5013561;28;20447;-82
2021/05/31 10:15:31;;;;;;;2.55;1.95;;;;;;;14.72;91.50;100288.06;5033278;28;20025;-81
2021/05/31 10:17:59;;;;;;;2.97;2.10;;;;;;;14.73;92.37;100308.03;5031613;28;20032;-79
2021/05/31 10:20:27;;;;;;;2.67;2.00;;;;;;;14.60;91.91;100274.84;5035909;28;20060;-78
2021/05/31 10:22:54;;;;;;;2.67;1.95;;;;;;;14.57;92.10;100289.50;5020089;28;20068;-80
2021/05/31 10:25:22;;;;;;;2.30;2.10;;;;;;;14.78;93.17;100301.19;5014395;28;20025;-80
2021/05/31 10:27:53;;;;;;;3.60;2.40;;;;;;;14.83;93.67;100286.53;5013899;28;20402;-80
2021/05/31 10:30:22;;;;;;;3.85;2.53;;;;;;;14.82;93.87;100260.53;5030302;28;20040;-80
2021/05/31 10:32:50;;;;;;;2.60;2.17;;;;;;;14.98;91.47;100266.84;5038088;28;20029;-81
2021/05/31 10:35:25;;;;;;;1.88;1.65;;;;;;;15.24;91.87;100294.94;5020368;28;20472;-85
2021/05/31 10:37:57;;;;;;;2.47;1.90;;;;;;;15.07;91.38;100240.13;5028579;28;20030;-80
2021/05/31 10:40:32;;;;;;;2.60;1.95;;;;;;;15.44;91.21;100287.44;5030622;28;20025;-82
2021/05/31 10:42:58;;;;;;;2.78;2.17;;;;;;;15.42;91.65;100274.41;5031592;28;20033;-80
2021/05/31 10:45:24;;;;;;;3.70;1.90;;;;;;;15.55;91.60;100288.44;5030960;28;20027;-79
2021/05/31 10:48:11;;;;;;;4.20;2.30;;;;;;;15.61;90.61;100280.72;5028791;28;20026;-78
2021/05/31 10:50:46;;;;;;;5.45;2.10;;;;;;;15.60;89.00;100291.13;5028380;28;20037;-78
2021/05/31 10:53:17;;;;;;;2.22;1.85;;;;;;;15.51;88.91;100278.88;5028860;28;20033;-83
2021/05/31 10:56:18;;;;;;;3.08;2.17;;;;;;;15.56;90.83;100274.59;5031520;28;20018;-80
2021/05/31 10:58:50;;;;;;;2.45;1.90;;;;;;;15.42;90.50;100266.59;4931628;29;20110;-80
2021/05/31 11:01:24;;;;;;;2.40;1.80;;;;;;;15.09;89.98;100207.19;4931762;29;20138;-80
2021/05/31 11:04:00;;;;;;;2.25;2.00;;;;;;;15.51;90.15;100273.66;4929582;29;20031;-79
2021/05/31 11:06:26;;;;;;;3.63;2.40;;;;;;;14.99;90.59;100180.19;4931551;29;20027;-80
2021/05/31 11:08:57;;;;;;;3.85;2.08;;;;;;;15.63;90.31;100272.97;4931608;29;20453;-79
2021/05/31 11:11:43;;;;;;;3.63;2.40;;;;;;;15.76;89.81;100269.63;4932249;29;20122;-80
2021/05/31 11:14:09;;;;;;;1.95;1.70;;;;;;;15.67;88.61;100254.78;4931856;29;20048;-79
2021/05/31 11:16:52;;;;;;;1.88;1.65;;;;;;;15.64;88.72;100265.16;4938999;29;20051;-82
2021/05/31 11:19:17;;;;;;;2.90;1.85;;;;;;;15.55;89.36;100252.03;4941246;29;20063;-82
2021/05/31 11:21:45;;;;;;;3.08;2.05;;;;;;;15.27;89.32;100186.63;4919759;29;20035;-81
2021/05/31 11:24:18;;;;;;;2.42;1.92;;;;;;;15.77;89.38;100265.31;4931113;29;20044;-79
2021/05/31 11:26:46;;;;;;;2.65;1.92;;;;;;;15.84;89.36;100267.19;4931226;29;20035;-86
2021/05/31 11:29:12;;;;;;;3.73;2.00;;;;;;;15.80;87.19;100244.53;4931477;29;20028;-81
2021/05/31 11:31:40;;;;;;;3.92;2.45;;;;;;;15.68;88.02;100240.94;4924349;29;20782;-79
2021/05/31 11:34:06;;;;;;;2.25;1.85;;;;;;;15.38;88.80;100189.38;4988418;28;20045;-81
2021/05/31 11:36:44;;;;;;;2.58;1.83;;;;;;;15.81;90.12;100262.78;5013228;28;20134;-81
2021/05/31 11:39:16;;;;;;;2.83;1.88;;;;;;;15.77;89.36;100236.69;5012383;28;20040;-82
2021/05/31 11:41:45;;;;;;;2.13;1.80;;;;;;;16.01;87.59;100265.66;5012953;28;20033;-81
2021/05/31 11:44:14;;;;;;;5.63;2.10;;;;;;;15.90;87.76;100251.66;5030769;28;20061;-83
2021/05/31 11:46:49;;;;;;;4.45;1.73;;;;;;;15.98;87.82;100259.53;5013363;28;20025;-81
2021/05/31 11:49:16;;;;;;;1.83;1.60;;;;;;;15.99;86.59;100267.34;5013382;28;20026;-82
2021/05/31 11:51:42;;;;;;;2.40;1.90;;;;;;;16.02;87.77;100253.50;5030998;28;20030;-80
2021/05/31 11:54:12;;;;;;;2.92;1.60;;;;;;;15.89;86.51;100241.19;5013163;28;20036;-81